createdAt,value
2022-08-17T00:01:02.748Z,99721.40
2022-08-17T00:03:41.236Z,99724.20
2022-08-17T00:06:19.190Z,99723.00
2022-08-17T00:08:56.458Z,99721.80
2022-08-17T00:11:34.015Z,99724.00
2022-08-17T00:14:12.555Z,99726.80
2022-08-17T00:16:50.656Z,99726.20
2022-08-17T00:19:33.075Z,99722.40
2022-08-17T00:22:34.493Z,99716.20
2022-08-17T00:25:00.662Z,99711.60
2022-08-17T00:27:34.646Z,99706.80
2022-08-17T00:30:10.483Z,99710.00
2022-08-17T00:33:15.012Z,99709.60
2022-08-17T00:35:41.111Z,99709.20
2022-08-17T00:38:14.521Z,99714.40
2022-08-17T00:40:51.795Z,99715.80
2022-08-17T00:43:31.637Z,99714.00
2022-08-17T00:46:09.907Z,99713.20
2022-08-17T00:48:43.508Z,99714.20
2022-08-17T00:51:21.126Z,99715.00
2022-08-17T00:53:59.771Z,99712.20
2022-08-17T00:56:38.854Z,99717.00
2022-08-17T00:59:15.626Z,99714.40
2022-08-17T01:01:49.146Z,99716.40
2022-08-17T01:04:24.189Z,99718.80
2022-08-17T01:06:58.953Z,99718.00
2022-08-17T01:09:32.302Z,99721.80
2022-08-17T01:12:06.916Z,99719.00
2022-08-17T01:14:42.647Z,99719.80
2022-08-17T01:17:16.061Z,99720.80
2022-08-17T01:19:48.956Z,99722.00
2022-08-17T01:22:26.803Z,99717.40
2022-08-17T01:25:03.881Z,99714.40
2022-08-17T01:27:37.464Z,99715.00
2022-08-17T01:30:56.861Z,99716.80
2022-08-17T01:33:11.813Z,99712.60
2022-08-17T01:35:44.747Z,99715.80
2022-08-17T01:38:17.679Z,99716.40
2022-08-17T01:41:04.924Z,99713.20
2022-08-17T01:43:44.907Z,99707.80
2022-08-17T01:46:23.977Z,99709.40
2022-08-17T01:48:57.813Z,99705.60
2022-08-17T01:51:34.088Z,99704.40
2022-08-17T01:54:13.035Z,99706.60
2022-08-17T01:56:51.441Z,99713.20
2022-08-17T01:59:25.259Z,99714.40
2022-08-17T02:01:58.120Z,99712.60
2022-08-17T02:04:31.144Z,99709.60
2022-08-17T02:07:04.242Z,99709.40
2022-08-17T02:09:37.773Z,99707.80
2022-08-17T02:12:37.811Z,99709.00
2022-08-17T02:15:15.347Z,99703.20
2022-08-17T02:17:54.745Z,99699.20
2022-08-17T02:20:42.317Z,99700.20
2022-08-17T02:23:16.765Z,99703.20
2022-08-17T02:25:50.524Z,99702.20
2022-08-17T02:28:23.406Z,99698.00
2022-08-17T02:31:01.434Z,99696.20
2022-08-17T02:33:42.041Z,99694.60
2022-08-17T02:36:16.665Z,99696.00
2022-08-17T02:38:49.327Z,99692.80
2022-08-17T02:41:21.956Z,99692.20
2022-08-17T02:43:54.933Z,99693.20
2022-08-17T02:46:28.078Z,99695.00
2022-08-17T02:49:01.445Z,99691.00
2022-08-17T02:51:34.333Z,99687.20
2022-08-17T02:54:39.984Z,99696.20
2022-08-17T02:57:00.262Z,99693.20
2022-08-17T02:59:33.161Z,99697.00
2022-08-17T03:02:07.682Z,99703.20
2022-08-17T03:04:40.891Z,99707.40
2022-08-17T03:07:13.679Z,99708.80
2022-08-17T03:09:46.517Z,99715.00
2022-08-17T03:12:19.506Z,99712.40
2022-08-17T03:14:52.298Z,99712.80
2022-08-17T03:17:25.115Z,99716.60
2022-08-17T03:19:58.952Z,99715.60
2022-08-17T03:22:38.549Z,99713.80
2022-08-17T03:25:16.459Z,99714.00
2022-08-17T03:27:53.145Z,99716.80
2022-08-17T03:30:27.593Z,99715.60
2022-08-17T03:33:03.309Z,99724.80
2022-08-17T03:35:39.898Z,99724.00
2022-08-17T03:38:15.881Z,99722.40
2022-08-17T03:40:56.593Z,99727.00
2022-08-17T03:43:34.808Z,99724.80
2022-08-17T03:46:34.229Z,99726.60
2022-08-17T03:49:28.153Z,99722.00
2022-08-17T03:52:19.268Z,99729.60
2022-08-17T03:55:09.966Z,99732.60
2022-08-17T03:57:42.853Z,99728.40
2022-08-17T04:00:18.069Z,99732.20
2022-08-17T04:02:50.957Z,99736.60
2022-08-17T04:05:24.213Z,99737.20
2022-08-17T04:07:56.948Z,99738.20
2022-08-17T04:10:30.768Z,99734.40
2022-08-17T04:13:07.145Z,99734.20
2022-08-17T04:15:40.139Z,99741.40
2022-08-17T04:18:13.140Z,99743.00
2022-08-17T04:20:46.223Z,99744.20
2022-08-17T04:23:21.524Z,99741.60
2022-08-17T04:25:55.846Z,99751.80
2022-08-17T04:28:28.635Z,99750.00
2022-08-17T04:31:02.135Z,99752.60
2022-08-17T04:33:34.970Z,99759.60
2022-08-17T04:36:10.238Z,99756.80
2022-08-17T04:38:46.208Z,99760.80
2022-08-17T04:41:37.430Z,99761.80
2022-08-17T04:44:11.767Z,99764.60
2022-08-17T04:46:44.616Z,99762.80
2022-08-17T04:49:18.981Z,99766.00
2022-08-17T04:51:55.839Z,99766.00
2022-08-17T04:54:29.983Z,99766.20
2022-08-17T04:57:02.740Z,99763.60
2022-08-17T04:59:35.641Z,99765.00
2022-08-17T05:02:08.996Z,99760.20
2022-08-17T05:04:42.158Z,99755.00
2022-08-17T05:07:18.619Z,99757.40
2022-08-17T05:09:54.140Z,99758.40
2022-08-17T05:12:27.102Z,99759.20
2022-08-17T05:14:59.774Z,99761.60
2022-08-17T05:17:32.778Z,99762.80
2022-08-17T05:20:06.529Z,99772.40
2022-08-17T05:22:47.390Z,99771.60
2022-08-17T05:25:24.950Z,99768.00
2022-08-17T05:27:59.791Z,99767.00
2022-08-17T05:30:35.250Z,99770.00
2022-08-17T05:33:12.214Z,99766.80
2022-08-17T05:35:48.258Z,99763.80
2022-08-17T05:38:25.585Z,99767.40
2022-08-17T05:40:59.425Z,99763.80
2022-08-17T05:43:35.316Z,99764.20
2022-08-17T05:46:16.015Z,99773.60
2022-08-17T05:48:51.748Z,99770.40
2022-08-17T05:51:58.116Z,99769.00
2022-08-17T05:54:44.847Z,99765.60
2022-08-17T05:57:39.946Z,99761.80
2022-08-17T06:00:26.487Z,99756.80
2022-08-17T06:03:23.694Z,99759.60
2022-08-17T06:06:37.106Z,99763.20
2022-08-17T06:09:33.933Z,99772.40
2022-08-17T06:12:41.733Z,99777.00
2022-08-17T06:15:41.888Z,99784.00
2022-08-17T06:18:19.038Z,99789.60
2022-08-17T06:20:58.113Z,99787.60
2022-08-17T06:23:36.112Z,99784.80
2022-08-17T06:26:16.121Z,99785.80
2022-08-17T06:28:58.592Z,99786.40
2022-08-17T06:31:36.919Z,99784.80
2022-08-17T06:34:13.396Z,99790.60
2022-08-17T06:37:03.706Z,99785.00
2022-08-17T06:39:47.818Z,99786.20
2022-08-17T06:42:54.758Z,99790.00
2022-08-17T06:45:29.396Z,99789.00
2022-08-17T06:48:10.382Z,99793.40
2022-08-17T06:50:49.373Z,99790.60
2022-08-17T06:53:28.522Z,99792.60
2022-08-17T06:56:08.918Z,99799.80
2022-08-17T06:58:45.626Z,99798.00
2022-08-17T07:01:23.135Z,99796.00
2022-08-17T07:04:05.132Z,99802.80
2022-08-17T07:06:52.487Z,99801.20
2022-08-17T07:09:30.580Z,99802.00
2022-08-17T07:12:15.513Z,99802.40
2022-08-17T07:14:55.388Z,99798.20
2022-08-17T07:17:46.402Z,99796.20
2022-08-17T07:20:23.639Z,99805.40
2022-08-17T07:23:04.598Z,99808.80
2022-08-17T07:25:38.132Z,99811.40
2022-08-17T07:28:13.279Z,99813.20
2022-08-17T07:30:57.416Z,99816.20
2022-08-17T07:33:34.298Z,99812.40
2022-08-17T07:36:29.566Z,99821.80
2022-08-17T07:39:04.302Z,99817.80
2022-08-17T07:41:53.424Z,99822.00
2022-08-17T07:44:32.344Z,99819.80
2022-08-17T07:47:23.860Z,99822.00
2022-08-17T07:49:56.751Z,99823.80
2022-08-17T07:52:50.524Z,99826.40
2022-08-17T07:55:40.694Z,99820.40
2022-08-17T07:58:19.832Z,99828.40
2022-08-17T08:01:06.858Z,99828.60
2022-08-17T08:03:49.389Z,99825.80
2022-08-17T08:06:27.675Z,99825.60
2022-08-17T08:09:02.185Z,99826.40
2022-08-17T08:11:44.153Z,99829.60
2022-08-17T08:14:29.709Z,99826.00
2022-08-17T08:17:09.464Z,99825.20
2022-08-17T08:19:43.082Z,99827.40
2022-08-17T08:22:31.886Z,99832.20
2022-08-17T08:25:21.566Z,99830.60
2022-08-17T08:28:08.962Z,99827.60
2022-08-17T08:30:50.973Z,99832.60
2022-08-17T08:33:41.264Z,99828.40
2022-08-17T08:37:15.818Z,99834.20
2022-08-17T08:39:45.561Z,99830.20
2022-08-17T08:42:33.100Z,99827.80
2022-08-17T08:45:16.774Z,99835.40
2022-08-17T08:48:07.166Z,99832.20
2022-08-17T08:51:08.572Z,99834.60
2022-08-17T08:53:55.780Z,99830.40
2022-08-17T08:56:38.146Z,99832.00
2022-08-17T08:59:26.277Z,99828.40
2022-08-17T09:02:16.890Z,99833.00
2022-08-17T09:05:14.990Z,99835.20
2022-08-17T09:07:59.983Z,99830.00
2022-08-17T09:10:51.052Z,99823.40
2022-08-17T09:13:36.428Z,99827.00
2022-08-17T09:16:16.713Z,99829.20
2022-08-17T09:19:00.370Z,99834.80
2022-08-17T09:21:47.774Z,99834.60
2022-08-17T09:24:33.319Z,99831.60
2022-08-17T09:27:15.000Z,99831.60
2022-08-17T09:29:53.256Z,99828.60
2022-08-17T09:32:34.104Z,99832.80
2022-08-17T09:35:15.876Z,99832.40
2022-08-17T09:38:04.642Z,99833.40
2022-08-17T09:40:45.523Z,99831.80
2022-08-17T09:43:29.037Z,99833.20
2022-08-17T09:46:08.517Z,99828.80
2022-08-17T09:48:49.205Z,99828.60
2022-08-17T09:51:31.733Z,99828.60
2022-08-17T09:54:36.872Z,99830.60
2022-08-17T09:57:29.167Z,99833.00
2022-08-17T10:00:19.027Z,99830.80
2022-08-17T10:03:16.634Z,99834.40
2022-08-17T10:05:57.303Z,99838.60
2022-08-17T10:08:42.777Z,99837.80
2022-08-17T10:11:52.986Z,99838.00
2022-08-17T10:14:43.474Z,99839.80
2022-08-17T10:17:29.089Z,99841.40
2022-08-17T10:20:11.677Z,99840.40
2022-08-17T10:23:07.742Z,99839.80
2022-08-17T10:26:10.078Z,99835.00
2022-08-17T10:28:59.043Z,99837.00
2022-08-17T10:31:36.938Z,99836.80
2022-08-17T10:34:51.302Z,99841.40
2022-08-17T10:38:21.541Z,99843.20
2022-08-17T10:41:04.714Z,99840.60
2022-08-17T10:44:37.491Z,99846.20
2022-08-17T10:47:05.106Z,99847.20
2022-08-17T10:49:39.376Z,99846.60
2022-08-17T10:52:51.849Z,99854.00
2022-08-17T10:55:26.175Z,99855.20
2022-08-17T10:58:22.233Z,99853.00
2022-08-17T11:01:04.965Z,99851.40
2022-08-17T11:03:38.067Z,99855.20
2022-08-17T11:06:25.519Z,99855.20
2022-08-17T11:09:27.737Z,99853.80
2022-08-17T11:12:29.649Z,99857.20
2022-08-17T11:15:23.981Z,99864.80
2022-08-17T11:18:40.117Z,99856.20
2022-08-17T11:21:53.170Z,99851.80
2022-08-17T11:24:35.150Z,99851.20
2022-08-17T11:27:27.555Z,99860.60
2022-08-17T11:30:04.271Z,99865.80
2022-08-17T11:32:47.604Z,99863.20
2022-08-17T11:35:47.361Z,99858.20
2022-08-17T11:38:31.098Z,99848.40
2022-08-17T11:41:20.331Z,99847.40
2022-08-17T11:44:11.992Z,99847.60
2022-08-17T11:47:27.033Z,99850.20
2022-08-17T11:50:42.502Z,99853.40
2022-08-17T11:57:24.328Z,99836.60
2022-08-17T12:00:07.134Z,99831.40
2022-08-17T12:02:48.809Z,99830.20
2022-08-17T12:05:37.443Z,99830.40
2022-08-17T12:08:21.730Z,99828.00
2022-08-17T12:11:05.163Z,99828.20
2022-08-17T12:13:44.937Z,99826.80
2022-08-17T12:16:21.969Z,99827.80
2022-08-17T12:18:59.428Z,99830.60
2022-08-17T12:21:46.428Z,99828.80
2022-08-17T12:24:33.013Z,99827.80
2022-08-17T12:27:10.926Z,99827.00
2022-08-17T12:29:47.703Z,99826.00
2022-08-17T12:32:23.895Z,99827.80
2022-08-17T12:34:57.446Z,99827.20
2022-08-17T12:37:34.063Z,99818.80
2022-08-17T12:40:19.395Z,99823.60
2022-08-17T12:43:02.537Z,99820.20
2022-08-17T12:45:39.607Z,99825.80
2022-08-17T12:48:15.045Z,99824.60
2022-08-17T12:50:50.753Z,99823.80
2022-08-17T12:53:27.900Z,99822.60
2022-08-17T12:56:03.016Z,99824.60
2022-08-17T12:58:45.319Z,99825.40
2022-08-17T13:01:20.448Z,99831.20
2022-08-17T13:03:57.393Z,99832.00
2022-08-17T13:06:37.398Z,99827.20
2022-08-17T13:09:19.953Z,99821.40
2022-08-17T13:12:01.251Z,99815.20
2022-08-17T13:14:34.259Z,99819.00
2022-08-17T13:17:13.516Z,99822.80
2022-08-17T13:19:53.913Z,99824.40
2022-08-17T13:22:30.652Z,99825.20
2022-08-17T13:25:09.766Z,99823.20
2022-08-17T13:27:45.225Z,99819.40
2022-08-17T13:30:27.341Z,99822.00
2022-08-17T13:33:04.072Z,99820.60
2022-08-17T13:35:50.085Z,99818.80
2022-08-17T13:38:47.451Z,99817.60
2022-08-17T13:44:40.728Z,99822.60
2022-08-17T13:47:22.248Z,99818.00
2022-08-17T13:49:56.212Z,99819.60
2022-08-17T13:52:43.476Z,99821.00
2022-08-17T13:55:24.017Z,99815.20
2022-08-17T13:58:06.879Z,99820.40
2022-08-17T14:00:40.979Z,99817.40
2022-08-17T14:03:15.675Z,99820.20
2022-08-17T14:05:48.787Z,99820.20
2022-08-17T14:08:23.602Z,99821.00
2022-08-17T14:11:02.611Z,99824.40
2022-08-17T14:13:35.598Z,99816.00
2022-08-17T14:16:09.545Z,99819.80
2022-08-17T14:18:56.074Z,99819.40
2022-08-17T14:21:30.255Z,99809.80
2022-08-17T14:24:04.270Z,99807.00
2022-08-17T14:26:37.528Z,99806.80
2022-08-17T14:29:15.281Z,99811.40
2022-08-17T14:31:53.166Z,99809.60
2022-08-17T14:34:27.391Z,99802.80
2022-08-17T14:37:00.305Z,99801.20
2022-08-17T14:39:33.505Z,99801.40
2022-08-17T14:42:07.957Z,99802.40
2022-08-17T14:44:40.868Z,99800.60
2022-08-17T14:47:16.163Z,99803.60
2022-08-17T14:49:49.618Z,99804.20
2022-08-17T14:52:24.190Z,99803.00
2022-08-17T14:54:57.897Z,99803.00
2022-08-17T14:57:33.666Z,99804.60
2022-08-17T15:00:12.506Z,99801.20
2022-08-17T15:02:53.914Z,99802.20
2022-08-17T15:05:31.997Z,99805.20
2022-08-17T15:08:06.818Z,99801.80
2022-08-17T15:10:40.596Z,99805.20
2022-08-17T15:13:22.211Z,99805.20
2022-08-17T15:15:55.510Z,99800.60
2022-08-17T15:18:28.866Z,99798.80
2022-08-17T15:21:04.246Z,99802.80
2022-08-17T15:23:37.443Z,99805.00
2022-08-17T15:26:10.998Z,99802.20
2022-08-17T15:28:43.676Z,99804.60
2022-08-17T15:31:32.124Z,99805.40
2022-08-17T15:34:07.976Z,99801.40
2022-08-17T15:36:49.097Z,99797.20
2022-08-17T15:39:23.072Z,99796.80
2022-08-17T15:41:58.492Z,99795.80
2022-08-17T15:44:35.064Z,99797.00
2022-08-17T15:47:08.534Z,99798.60
2022-08-17T15:49:45.554Z,99797.60
2022-08-17T15:52:25.074Z,99797.40
2022-08-17T15:55:00.283Z,99801.40
2022-08-17T15:57:33.970Z,99801.40
2022-08-17T16:00:10.365Z,99807.00
2022-08-17T16:03:45.508Z,99804.40
2022-08-17T16:05:40.693Z,99805.80
2022-08-17T16:08:18.544Z,99806.20
2022-08-17T16:10:53.897Z,99814.20
2022-08-17T16:13:27.587Z,99811.40
2022-08-17T16:16:01.000Z,99809.40
2022-08-17T16:18:36.598Z,99810.40
2022-08-17T16:21:27.566Z,99805.00
2022-08-17T16:24:05.479Z,99811.20
2022-08-17T16:26:46.656Z,99818.80
2022-08-17T16:29:19.553Z,99810.60
2022-08-17T16:31:53.550Z,99810.80
2022-08-17T16:34:26.610Z,99814.00
2022-08-17T16:36:59.667Z,99817.60
2022-08-17T16:39:34.600Z,99820.40
2022-08-17T16:42:24.667Z,99819.40
2022-08-17T16:45:03.817Z,99813.60
2022-08-17T16:47:36.985Z,99817.00
2022-08-17T16:50:13.737Z,99822.80
2022-08-17T16:52:49.019Z,99820.40
2022-08-17T16:55:24.229Z,99819.20
2022-08-17T16:57:57.145Z,99816.60
2022-08-17T17:00:30.239Z,99817.40
2022-08-17T17:03:19.982Z,99810.80
2022-08-17T17:06:14.316Z,99818.80
2022-08-17T17:08:52.903Z,99820.80
2022-08-17T17:11:33.885Z,99823.20
2022-08-17T17:14:11.499Z,99814.00
2022-08-17T17:16:52.418Z,99813.60
2022-08-17T17:19:38.143Z,99813.00
2022-08-17T17:22:17.520Z,99806.80
2022-08-17T17:25:02.737Z,99805.60
2022-08-17T17:27:44.316Z,99801.00
2022-08-17T17:30:25.052Z,99802.00
2022-08-17T17:33:07.048Z,99803.20
2022-08-17T17:35:48.210Z,99805.20
2022-08-17T17:38:28.948Z,99812.60
2022-08-17T17:41:07.891Z,99805.00
2022-08-17T17:43:41.585Z,99812.00
2022-08-17T17:46:26.777Z,99801.20
2022-08-17T17:49:01.450Z,99797.40
2022-08-17T17:52:07.690Z,99797.60
2022-08-17T17:55:09.167Z,99794.80
2022-08-17T17:57:58.931Z,99795.80
2022-08-17T18:00:41.559Z,99795.60
2022-08-17T18:03:39.748Z,99807.20
2022-08-17T18:06:27.953Z,99817.80
2022-08-17T18:09:17.994Z,99817.20
2022-08-17T18:12:27.079Z,99813.80
2022-08-17T18:15:34.252Z,99815.60
2022-08-17T18:18:39.132Z,99809.40
2022-08-17T18:21:16.995Z,99808.20
2022-08-17T18:23:58.924Z,99803.40
2022-08-17T18:26:46.218Z,99800.80
2022-08-17T18:29:46.343Z,99797.00
2022-08-17T18:32:28.343Z,99805.60
2022-08-17T18:35:28.269Z,99814.00
2022-08-17T18:38:22.765Z,99819.20
2022-08-17T18:41:26.565Z,99811.60
2022-08-17T18:44:06.940Z,99809.00
2022-08-17T18:46:41.353Z,99812.20
2022-08-17T18:49:30.661Z,99809.80
2022-08-17T18:52:23.527Z,99819.60
2022-08-17T18:55:15.980Z,99810.00
2022-08-17T18:57:53.048Z,99817.40
2022-08-17T19:00:40.646Z,99819.60
2022-08-17T19:03:27.015Z,99821.00
2022-08-17T19:06:23.397Z,99820.80
2022-08-17T19:08:56.765Z,99820.20
2022-08-17T19:11:35.481Z,99825.20
2022-08-17T19:14:13.520Z,99819.80
2022-08-17T19:16:52.959Z,99821.60
2022-08-17T19:19:32.259Z,99824.60
2022-08-17T19:22:14.984Z,99822.00
2022-08-17T19:25:12.411Z,99824.40
2022-08-17T19:27:57.689Z,99827.60
2022-08-17T19:30:31.192Z,99834.80
2022-08-17T19:33:04.791Z,99833.00
2022-08-17T19:35:50.800Z,99833.60
2022-08-17T19:38:40.242Z,99831.20
2022-08-17T19:41:24.217Z,99834.80
2022-08-17T19:44:22.852Z,99839.40
2022-08-17T19:47:10.548Z,99847.60
2022-08-17T19:49:57.276Z,99846.80
2022-08-17T19:52:53.066Z,99849.00
2022-08-17T19:55:35.291Z,99849.20
2022-08-17T19:58:17.908Z,99845.60
2022-08-17T20:00:55.604Z,99846.80
2022-08-17T20:03:35.315Z,99852.20
2022-08-17T20:06:13.585Z,99857.80
2022-08-17T20:08:59.492Z,99854.20
2022-08-17T20:11:41.716Z,99853.60
2022-08-17T20:14:20.166Z,99851.20
2022-08-17T20:16:53.630Z,99850.00
2022-08-17T20:19:35.111Z,99839.80
2022-08-17T20:22:16.912Z,99841.00
2022-08-17T20:25:06.654Z,99840.00
2022-08-17T20:27:52.247Z,99838.60
2022-08-17T20:30:42.976Z,99841.40
2022-08-17T20:33:30.599Z,99842.00
2022-08-17T20:36:22.638Z,99839.20
2022-08-17T20:38:58.353Z,99836.20
2022-08-17T20:41:51.647Z,99831.20
2022-08-17T20:44:36.637Z,99827.00
2022-08-17T20:47:17.652Z,99832.20
2022-08-17T20:49:58.642Z,99827.40
2022-08-17T20:52:54.448Z,99825.40
2022-08-17T20:55:55.945Z,99825.40
2022-08-17T20:59:01.204Z,99825.60
2022-08-17T21:01:42.204Z,99823.80
2022-08-17T21:05:01.116Z,99811.00
2022-08-17T21:07:59.180Z,99816.00
2022-08-17T21:10:45.731Z,99817.00
2022-08-17T21:13:57.080Z,99811.60
2022-08-17T21:16:42.771Z,99808.40
2022-08-17T21:19:44.422Z,99805.00
2022-08-17T21:22:40.866Z,99800.60
2022-08-17T21:25:41.601Z,99804.00
2022-08-17T21:28:30.013Z,99810.00
2022-08-17T21:31:10.778Z,99806.60
2022-08-17T21:34:26.224Z,99795.80
2022-08-17T21:37:35.208Z,99801.60
2022-08-17T21:40:28.639Z,99804.60
2022-08-17T21:43:09.339Z,99806.80
2022-08-17T21:45:44.526Z,99806.80
2022-08-17T21:48:21.130Z,99810.00
2022-08-17T21:51:09.364Z,99813.60
2022-08-17T21:53:49.586Z,99813.60
2022-08-17T21:56:25.910Z,99821.40
2022-08-17T21:59:03.137Z,99818.80
2022-08-17T22:01:39.511Z,99818.80
2022-08-17T22:04:29.466Z,99823.60
2022-08-17T22:07:05.484Z,99820.40
2022-08-17T22:09:44.994Z,99821.80
2022-08-17T22:12:24.356Z,99817.60
2022-08-17T22:15:07.586Z,99810.00
2022-08-17T22:17:47.916Z,99826.60
2022-08-17T22:20:23.147Z,99831.20
2022-08-17T22:23:33.116Z,99829.00
2022-08-17T22:26:12.520Z,99824.00
2022-08-17T22:28:50.747Z,99838.20
2022-08-17T22:31:27.424Z,99838.80
2022-08-17T22:34:16.037Z,99839.20
2022-08-17T22:36:48.850Z,99836.80
2022-08-17T22:39:45.779Z,99843.00
2022-08-17T22:42:20.052Z,99847.00
2022-08-17T22:44:54.834Z,99850.40
2022-08-17T22:47:41.346Z,99850.00
2022-08-17T22:50:27.769Z,99847.00
2022-08-17T22:53:31.987Z,99844.60
2022-08-17T22:56:22.994Z,99843.60
2022-08-17T22:59:18.178Z,99848.40
2022-08-17T23:02:19.552Z,99850.60
2022-08-17T23:04:57.752Z,99854.40
2022-08-17T23:07:30.646Z,99859.40
2022-08-17T23:10:06.787Z,99864.80
2022-08-17T23:12:42.128Z,99868.20
2022-08-17T23:15:19.214Z,99865.60
2022-08-17T23:17:54.758Z,99865.20
2022-08-17T23:20:27.539Z,99862.60
2022-08-17T23:23:01.036Z,99869.40
2022-08-17T23:25:35.776Z,99869.20
2022-08-17T23:28:09.714Z,99868.80
2022-08-17T23:30:46.845Z,99871.20
2022-08-17T23:33:27.642Z,99869.60
2022-08-17T23:36:00.820Z,99872.20
2022-08-17T23:38:34.425Z,99869.80
2022-08-17T23:41:13.149Z,99869.60
2022-08-17T23:43:49.179Z,99867.60
2022-08-17T23:46:25.467Z,99862.20
2022-08-17T23:48:58.358Z,99859.20
2022-08-17T23:51:35.639Z,99859.80
2022-08-17T23:54:21.381Z,99861.80
2022-08-17T23:56:54.349Z,99856.80
2022-08-17T23:59:28.349Z,99855.40
